createdAt,value
2023-01-19T00:00:19.181Z,17.47
2023-01-19T00:02:47.530Z,17.90
2023-01-19T00:05:16.014Z,17.93
2023-01-19T00:07:44.213Z,18.20
2023-01-19T00:10:12.645Z,19.63
2023-01-19T00:12:40.590Z,19.17
2023-01-19T00:15:11.333Z,18.80
2023-01-19T00:17:40.997Z,20.00
2023-01-19T00:20:10.625Z,19.50
2023-01-19T00:22:38.635Z,20.13
2023-01-19T00:25:07.070Z,20.30
2023-01-19T00:27:35.095Z,20.53
2023-01-19T00:30:03.332Z,19.17
2023-01-19T00:32:32.649Z,19.50
2023-01-19T00:35:00.637Z,19.47
2023-01-19T00:37:28.629Z,19.23
2023-01-19T00:39:56.582Z,18.90
2023-01-19T00:42:44.508Z,18.83
2023-01-19T00:45:15.011Z,18.97
2023-01-19T00:47:44.355Z,22.10
2023-01-19T00:50:13.820Z,20.50
2023-01-19T00:52:42.778Z,20.80
2023-01-19T00:55:12.239Z,21.57
2023-01-19T00:57:40.929Z,21.17
2023-01-19T01:00:13.761Z,20.43
2023-01-19T01:02:43.546Z,20.27
2023-01-19T01:05:13.959Z,19.23
2023-01-19T01:07:44.597Z,19.40
2023-01-19T01:10:15.474Z,19.03
2023-01-19T01:12:56.634Z,20.00
2023-01-19T01:15:27.859Z,20.10
2023-01-19T01:17:55.941Z,20.33
2023-01-19T01:20:28.688Z,19.93
2023-01-19T01:22:58.038Z,20.57
2023-01-19T01:25:28.485Z,22.63
2023-01-19T01:27:56.569Z,21.13
2023-01-19T01:30:24.979Z,21.13
2023-01-19T01:32:52.985Z,19.97
2023-01-19T01:35:21.053Z,21.33
2023-01-19T01:37:50.372Z,22.10
2023-01-19T01:40:20.177Z,21.80
2023-01-19T01:42:48.235Z,22.60
2023-01-19T01:45:31.918Z,22.93
2023-01-19T01:48:05.192Z,23.17
2023-01-19T01:50:36.289Z,23.00
2023-01-19T01:53:11.761Z,24.13
2023-01-19T01:55:45.973Z,23.70
2023-01-19T01:58:15.976Z,23.57
2023-01-19T02:01:10.296Z,23.20
2023-01-19T02:03:38.548Z,25.40
2023-01-19T02:06:09.260Z,24.80
2023-01-19T02:09:00.815Z,25.97
2023-01-19T02:11:47.141Z,26.53
2023-01-19T02:14:15.129Z,25.20
2023-01-19T02:16:43.404Z,27.83
2023-01-19T02:19:17.595Z,31.07
2023-01-19T02:21:53.493Z,31.20
2023-01-19T02:24:23.287Z,32.53
2023-01-19T02:26:52.194Z,34.13
2023-01-19T02:29:23.732Z,39.80
2023-01-19T02:31:52.334Z,40.80
2023-01-19T02:34:21.844Z,46.07
2023-01-19T02:36:53.485Z,46.20
2023-01-19T02:39:28.338Z,47.07
2023-01-19T02:42:02.786Z,46.87
2023-01-19T02:44:32.044Z,47.17
2023-01-19T02:47:00.249Z,47.67
2023-01-19T02:49:30.479Z,46.97
2023-01-19T02:51:58.930Z,45.97
2023-01-19T02:54:41.487Z,45.97
2023-01-19T02:57:31.403Z,46.43
2023-01-19T03:00:09.786Z,42.20
2023-01-19T03:02:46.005Z,43.27
2023-01-19T03:05:24.598Z,43.03
2023-01-19T03:08:04.768Z,41.43
2023-01-19T03:10:42.397Z,40.83
2023-01-19T03:13:14.241Z,41.30
2023-01-19T03:15:49.008Z,41.33
2023-01-19T03:18:21.511Z,42.17
2023-01-19T03:20:53.525Z,44.23
2023-01-19T03:23:24.478Z,44.47
2023-01-19T03:25:57.565Z,40.97
2023-01-19T03:28:27.830Z,42.50
2023-01-19T03:31:01.105Z,41.80
2023-01-19T03:33:32.752Z,41.50
2023-01-19T03:36:06.046Z,41.63
2023-01-19T03:38:37.721Z,40.63
2023-01-19T03:41:11.583Z,40.33
2023-01-19T03:43:41.226Z,39.37
2023-01-19T03:46:10.969Z,38.90
2023-01-19T03:48:41.879Z,40.77
2023-01-19T03:51:12.020Z,37.97
2023-01-19T03:53:39.976Z,38.10
2023-01-19T03:56:17.798Z,38.93
2023-01-19T03:58:45.901Z,37.23
2023-01-19T04:01:14.096Z,37.40
2023-01-19T04:03:42.195Z,38.13
2023-01-19T04:06:11.108Z,39.53
2023-01-19T04:08:39.181Z,39.87
2023-01-19T04:11:08.260Z,39.53
2023-01-19T04:13:37.795Z,37.63
2023-01-19T04:16:06.770Z,40.47
2023-01-19T04:18:35.923Z,41.77
2023-01-19T04:21:05.667Z,41.10
2023-01-19T04:23:34.622Z,43.67
2023-01-19T04:26:04.438Z,43.27
2023-01-19T04:28:33.299Z,43.40
2023-01-19T04:31:02.779Z,43.33
2023-01-19T04:33:31.209Z,43.60
2023-01-19T04:35:59.199Z,44.03
2023-01-19T04:38:27.730Z,45.23
2023-01-19T04:40:56.049Z,45.47
2023-01-19T04:43:24.715Z,45.23
2023-01-19T04:45:52.895Z,45.97
2023-01-19T04:48:22.215Z,46.97
2023-01-19T04:50:52.315Z,47.70
2023-01-19T04:53:20.303Z,46.27
2023-01-19T04:55:48.268Z,48.70
2023-01-19T04:58:16.216Z,47.10
2023-01-19T05:00:45.471Z,46.13
2023-01-19T05:03:13.673Z,49.00
2023-01-19T05:05:42.999Z,50.90
2023-01-19T05:08:10.978Z,50.20
2023-01-19T05:10:38.980Z,51.67
2023-01-19T05:13:06.959Z,56.07
2023-01-19T05:15:34.927Z,52.80
2023-01-19T05:18:02.923Z,48.93
2023-01-19T05:20:30.898Z,45.33
2023-01-19T05:23:00.553Z,47.33
2023-01-19T05:25:29.093Z,48.90
2023-01-19T05:27:57.101Z,48.17
2023-01-19T05:30:25.081Z,46.10
2023-01-19T05:32:53.042Z,46.10
2023-01-19T05:35:31.287Z,45.63
2023-01-19T05:38:04.960Z,43.60
2023-01-19T05:40:33.418Z,42.37
2023-01-19T05:43:04.649Z,42.53
2023-01-19T05:45:33.141Z,41.90
2023-01-19T05:48:01.115Z,43.20
2023-01-19T05:50:29.124Z,41.53
2023-01-19T05:52:57.082Z,41.20
2023-01-19T05:55:27.011Z,39.87
2023-01-19T05:57:55.048Z,41.47
2023-01-19T06:00:23.366Z,40.87
2023-01-19T06:02:51.399Z,40.93
2023-01-19T06:05:19.455Z,39.40
2023-01-19T06:07:47.432Z,37.73
2023-01-19T06:10:15.460Z,39.70
2023-01-19T06:12:44.792Z,37.97
2023-01-19T06:15:14.473Z,39.80
2023-01-19T06:17:43.001Z,39.93
2023-01-19T06:20:14.005Z,38.80
2023-01-19T06:22:42.096Z,39.27
2023-01-19T06:25:11.585Z,37.70
2023-01-19T06:27:40.107Z,37.83
2023-01-19T06:30:11.109Z,37.67
2023-01-19T06:32:39.085Z,38.07
2023-01-19T06:35:08.212Z,37.40
2023-01-19T06:37:36.432Z,40.57
2023-01-19T06:40:04.758Z,40.73
2023-01-19T06:42:32.898Z,38.20
2023-01-19T06:45:00.884Z,37.00
2023-01-19T06:47:30.448Z,36.87
2023-01-19T06:49:58.481Z,35.33
2023-01-19T06:52:27.007Z,36.37
2023-01-19T06:54:55.524Z,36.67
2023-01-19T06:57:25.904Z,36.57
2023-01-19T06:59:54.048Z,37.27
2023-01-19T07:02:26.896Z,35.73
2023-01-19T07:04:57.605Z,38.60
2023-01-19T07:07:25.972Z,36.73
2023-01-19T07:09:54.456Z,37.50
2023-01-19T07:12:22.621Z,38.30
2023-01-19T07:14:50.624Z,38.37
2023-01-19T07:17:18.902Z,36.50
2023-01-19T07:19:47.904Z,35.23
2023-01-19T07:22:17.305Z,39.87
2023-01-19T07:24:45.357Z,36.73
2023-01-19T07:27:13.629Z,38.07
2023-01-19T07:29:42.402Z,37.80
2023-01-19T07:32:11.294Z,36.33
2023-01-19T07:34:39.308Z,39.27
2023-01-19T07:37:07.281Z,39.30
2023-01-19T07:39:36.738Z,40.03
2023-01-19T07:42:04.928Z,39.80
2023-01-19T07:44:32.991Z,40.10
2023-01-19T07:47:01.009Z,39.83
2023-01-19T07:49:28.964Z,41.53
2023-01-19T07:51:57.038Z,41.20
2023-01-19T07:54:25.179Z,41.87
2023-01-19T07:56:56.160Z,41.63
2023-01-19T07:59:24.305Z,38.27
2023-01-19T08:01:54.140Z,35.30
2023-01-19T08:04:22.326Z,37.80
2023-01-19T08:06:50.386Z,37.10
2023-01-19T08:09:19.143Z,38.27
2023-01-19T08:11:47.574Z,37.60
2023-01-19T08:14:16.937Z,36.70
2023-01-19T08:16:44.997Z,36.10
2023-01-19T08:19:12.970Z,34.30
2023-01-19T08:21:41.061Z,34.07
2023-01-19T08:24:19.085Z,35.23
2023-01-19T08:26:47.123Z,32.00
2023-01-19T08:29:16.563Z,33.70
2023-01-19T08:31:45.069Z,32.13
2023-01-19T08:34:13.121Z,32.13
2023-01-19T08:36:41.068Z,32.77
2023-01-19T08:39:09.055Z,33.70
2023-01-19T08:41:37.045Z,33.10
2023-01-19T08:44:05.362Z,33.77
2023-01-19T08:46:34.728Z,33.43
2023-01-19T08:49:02.821Z,33.17
2023-01-19T08:51:30.810Z,34.93
2023-01-19T08:53:58.801Z,33.57
2023-01-19T08:56:26.824Z,34.37
2023-01-19T08:59:08.142Z,34.67
2023-01-19T09:01:39.209Z,34.63
2023-01-19T09:04:07.788Z,36.63
2023-01-19T09:06:35.847Z,36.20
2023-01-19T09:09:03.977Z,36.00
2023-01-19T09:11:32.056Z,38.30
2023-01-19T09:14:00.114Z,36.60
2023-01-19T09:16:29.309Z,35.83
2023-01-19T09:18:58.712Z,36.57
2023-01-19T09:21:26.993Z,34.93
2023-01-19T09:23:55.662Z,36.90
2023-01-19T09:26:23.786Z,37.70
2023-01-19T09:28:51.799Z,37.93
2023-01-19T09:31:19.853Z,37.30
2023-01-19T09:33:47.969Z,40.57
2023-01-19T09:36:17.268Z,40.73
2023-01-19T09:38:45.265Z,40.03
2023-01-19T09:41:20.951Z,40.27
2023-01-19T09:43:52.558Z,41.27
2023-01-19T09:46:23.314Z,42.40
2023-01-19T09:48:53.913Z,40.17
2023-01-19T09:51:24.810Z,41.13
2023-01-19T09:53:58.807Z,37.60
2023-01-19T09:56:30.082Z,36.53
2023-01-19T09:58:58.867Z,36.63
2023-01-19T10:01:38.620Z,36.90
2023-01-19T10:04:28.930Z,36.27
2023-01-19T10:07:08.024Z,35.67
2023-01-19T10:09:46.610Z,34.97
2023-01-19T10:12:23.357Z,34.93
2023-01-19T10:15:01.582Z,35.93
2023-01-19T10:17:39.741Z,35.83
2023-01-19T10:20:17.982Z,37.13
2023-01-19T10:22:50.668Z,37.57
2023-01-19T10:25:23.882Z,39.67
2023-01-19T10:27:52.165Z,38.17
2023-01-19T10:30:24.225Z,37.83
2023-01-19T10:32:52.800Z,42.77
2023-01-19T10:35:24.589Z,38.57
2023-01-19T10:37:57.193Z,40.53
2023-01-19T10:40:33.126Z,40.07
2023-01-19T10:43:01.862Z,36.53
2023-01-19T10:45:32.392Z,36.47
2023-01-19T10:48:07.169Z,38.73
2023-01-19T10:50:40.061Z,32.87
2023-01-19T10:53:22.169Z,32.07
2023-01-19T10:56:11.889Z,34.00
2023-01-19T10:58:40.523Z,32.60
2023-01-19T11:01:17.643Z,30.80
2023-01-19T11:03:46.145Z,30.23
2023-01-19T11:06:26.098Z,31.77
2023-01-19T11:09:11.864Z,32.00
2023-01-19T11:11:51.351Z,30.53
2023-01-19T11:14:23.033Z,28.77
2023-01-19T11:16:54.055Z,29.53
2023-01-19T11:19:29.727Z,28.83
2023-01-19T11:22:12.036Z,30.07
2023-01-19T11:24:41.645Z,30.20
2023-01-19T11:27:09.698Z,30.27
2023-01-19T11:29:39.022Z,30.43
2023-01-19T11:32:21.297Z,30.90
2023-01-19T11:34:50.441Z,30.00
2023-01-19T11:37:34.553Z,30.20
2023-01-19T11:40:08.448Z,29.37
2023-01-19T11:42:37.635Z,28.47
2023-01-19T11:45:12.354Z,30.27
2023-01-19T11:47:43.775Z,29.23
2023-01-19T11:50:24.387Z,29.87
2023-01-19T11:52:56.853Z,28.27
2023-01-19T11:55:34.013Z,29.30
2023-01-19T11:58:04.425Z,27.67
2023-01-19T12:00:38.192Z,27.03
2023-01-19T12:03:14.352Z,28.20
2023-01-19T12:05:48.303Z,28.93
2023-01-19T12:08:22.235Z,29.53
2023-01-19T12:10:53.632Z,28.80
2023-01-19T12:13:23.981Z,26.93
2023-01-19T12:15:57.840Z,27.90
2023-01-19T12:18:29.462Z,28.57
2023-01-19T12:20:58.784Z,28.47
2023-01-19T12:23:40.174Z,27.93
2023-01-19T12:26:31.820Z,28.63
2023-01-19T12:29:04.909Z,28.50
2023-01-19T12:31:33.679Z,25.47
2023-01-19T12:34:36.074Z,25.63
2023-01-19T12:37:05.593Z,26.37
2023-01-19T12:39:35.380Z,26.33
2023-01-19T12:42:15.921Z,27.30
2023-01-19T12:44:45.188Z,26.73
2023-01-19T12:47:22.232Z,26.60
2023-01-19T12:49:52.993Z,26.03
2023-01-19T12:52:26.835Z,30.87
2023-01-19T12:55:01.800Z,31.03
2023-01-19T12:57:34.118Z,29.93
2023-01-19T13:00:05.395Z,33.50
2023-01-19T13:02:51.917Z,30.27
2023-01-19T13:05:42.115Z,30.03
2023-01-19T13:08:56.579Z,28.20
2023-01-19T13:11:27.088Z,27.50
2023-01-19T13:14:35.642Z,28.13
2023-01-19T13:17:24.451Z,25.47
2023-01-19T13:20:06.831Z,25.37
2023-01-19T13:23:19.765Z,25.77
2023-01-19T13:25:54.567Z,27.10
2023-01-19T13:28:36.861Z,25.33
2023-01-19T13:31:05.362Z,24.77
2023-01-19T13:33:41.208Z,21.47
2023-01-19T13:36:21.690Z,23.17
2023-01-19T13:38:51.118Z,22.50
2023-01-19T13:41:23.009Z,24.83
2023-01-19T13:43:55.965Z,18.90
2023-01-19T13:46:26.376Z,21.93
2023-01-19T13:48:59.790Z,22.33
2023-01-19T13:51:27.826Z,21.63
2023-01-19T13:53:57.228Z,23.73
2023-01-19T13:56:27.821Z,22.80
2023-01-19T13:59:05.589Z,22.50
2023-01-19T14:01:33.652Z,22.87
2023-01-19T14:04:03.122Z,24.53
2023-01-19T14:06:38.679Z,25.57
2023-01-19T14:09:16.627Z,27.20
2023-01-19T14:11:45.391Z,25.63
2023-01-19T14:14:27.927Z,26.20
2023-01-19T14:16:56.003Z,23.63
2023-01-19T14:19:25.509Z,24.23
2023-01-19T14:22:01.671Z,25.87
2023-01-19T14:24:32.185Z,25.83
2023-01-19T14:27:19.336Z,26.43
2023-01-19T14:29:50.509Z,26.90
2023-01-19T14:32:21.149Z,25.87
2023-01-19T14:34:53.759Z,22.50
2023-01-19T14:37:27.920Z,25.97
2023-01-19T14:40:04.674Z,27.83
2023-01-19T14:42:35.841Z,25.73
2023-01-19T14:45:07.773Z,29.37
2023-01-19T14:47:38.872Z,28.80
2023-01-19T14:50:18.849Z,37.20
2023-01-19T14:52:53.883Z,31.87
2023-01-19T14:55:25.127Z,36.03
2023-01-19T14:57:54.631Z,34.33
2023-01-19T15:00:23.186Z,29.63
2023-01-19T15:02:51.179Z,30.70
2023-01-19T15:05:21.106Z,28.50
2023-01-19T15:07:49.247Z,26.70
2023-01-19T15:10:21.708Z,31.33
2023-01-19T15:12:50.825Z,28.37
2023-01-19T15:15:22.692Z,31.23
2023-01-19T15:17:51.693Z,26.53
2023-01-19T15:20:23.286Z,28.80
2023-01-19T15:22:51.419Z,29.67
2023-01-19T15:25:21.609Z,32.03
2023-01-19T15:27:50.249Z,29.80
2023-01-19T15:30:21.082Z,26.53
2023-01-19T15:32:49.096Z,27.83
2023-01-19T15:35:19.320Z,28.97
2023-01-19T15:37:49.147Z,36.27
2023-01-19T15:40:19.054Z,30.70
2023-01-19T15:42:47.595Z,27.23
2023-01-19T15:45:33.508Z,30.17
2023-01-19T15:48:03.918Z,27.47
2023-01-19T15:50:32.442Z,31.23
2023-01-19T15:53:01.836Z,32.03
2023-01-19T15:55:30.048Z,33.87
2023-01-19T15:58:01.546Z,31.07
2023-01-19T16:00:30.615Z,27.67
2023-01-19T16:02:59.386Z,28.63
2023-01-19T16:05:41.352Z,30.83
2023-01-19T16:08:11.911Z,30.20
2023-01-19T16:10:40.841Z,30.57
2023-01-19T16:13:08.966Z,36.33
2023-01-19T16:15:37.757Z,31.00
2023-01-19T16:18:06.789Z,35.77
2023-01-19T16:20:34.969Z,40.70
2023-01-19T16:23:14.935Z,33.67
2023-01-19T16:25:44.818Z,31.90
2023-01-19T16:28:13.306Z,34.27
2023-01-19T16:30:41.387Z,33.10
2023-01-19T16:33:11.642Z,30.27
2023-01-19T16:35:40.150Z,34.47
2023-01-19T16:38:09.425Z,34.93
2023-01-19T16:40:37.539Z,34.83
2023-01-19T16:43:06.960Z,35.47
2023-01-19T16:45:34.955Z,38.33
2023-01-19T16:48:03.005Z,45.77
2023-01-19T16:50:30.983Z,41.90
2023-01-19T16:52:59.099Z,36.97
2023-01-19T16:55:27.170Z,36.37
2023-01-19T16:57:56.668Z,39.97
2023-01-19T17:00:26.170Z,40.80
2023-01-19T17:02:54.256Z,39.17
2023-01-19T17:05:22.374Z,38.77
2023-01-19T17:07:50.421Z,38.53
2023-01-19T17:10:18.496Z,40.33
2023-01-19T17:12:46.449Z,37.67
2023-01-19T17:15:14.514Z,35.70
2023-01-19T17:17:43.879Z,35.60
2023-01-19T17:20:13.024Z,36.27
2023-01-19T17:22:41.070Z,38.73
2023-01-19T17:25:09.592Z,38.73
2023-01-19T17:27:37.624Z,35.87
2023-01-19T17:30:06.099Z,36.07
2023-01-19T17:32:34.105Z,37.20
2023-01-19T17:35:03.416Z,38.37
2023-01-19T17:37:31.362Z,39.47
2023-01-19T17:39:59.373Z,38.83
2023-01-19T17:42:27.453Z,37.87
2023-01-19T17:44:55.456Z,32.97
2023-01-19T17:47:25.948Z,34.83
2023-01-19T17:49:54.012Z,35.80
2023-01-19T17:52:23.378Z,35.27
2023-01-19T17:54:51.406Z,34.03
2023-01-19T17:57:19.383Z,38.37
2023-01-19T17:59:48.225Z,36.93
2023-01-19T18:02:16.390Z,36.87
2023-01-19T18:04:44.587Z,36.27
2023-01-19T18:07:12.586Z,36.27
2023-01-19T18:09:41.926Z,36.53
2023-01-19T18:12:09.931Z,32.27
2023-01-19T18:14:37.881Z,30.93
2023-01-19T18:17:05.903Z,33.53
2023-01-19T18:19:34.057Z,33.27
2023-01-19T18:22:02.087Z,31.97
2023-01-19T18:24:30.214Z,32.23
2023-01-19T18:26:59.513Z,29.77
2023-01-19T18:29:27.774Z,34.33
2023-01-19T18:31:56.865Z,33.30
2023-01-19T18:34:24.863Z,36.43
2023-01-19T18:36:52.837Z,38.20
2023-01-19T18:39:21.152Z,35.27
2023-01-19T18:41:49.106Z,35.80
2023-01-19T18:44:18.449Z,31.27
2023-01-19T18:46:46.426Z,31.73
2023-01-19T18:49:14.463Z,31.20
2023-01-19T18:51:43.435Z,30.43
2023-01-19T18:54:12.334Z,27.20
2023-01-19T18:56:40.318Z,32.07
2023-01-19T18:59:08.302Z,30.43
2023-01-19T19:01:37.933Z,28.70
2023-01-19T19:04:08.245Z,30.37
2023-01-19T19:06:36.195Z,31.53
2023-01-19T19:09:05.215Z,34.57
2023-01-19T19:11:33.220Z,33.83
2023-01-19T19:14:02.770Z,32.73
2023-01-19T19:16:33.990Z,33.43
2023-01-19T19:19:04.488Z,33.50
2023-01-19T19:21:32.466Z,33.53
2023-01-19T19:24:00.551Z,35.03
2023-01-19T19:26:29.150Z,34.27
2023-01-19T19:28:57.318Z,30.40
2023-01-19T19:31:27.523Z,29.20
2023-01-19T19:33:56.705Z,29.80
2023-01-19T19:36:27.707Z,32.93
2023-01-19T19:38:55.848Z,31.60
2023-01-19T19:41:27.081Z,29.73
2023-01-19T19:43:55.815Z,33.20
2023-01-19T19:46:25.194Z,31.63
2023-01-19T19:49:08.680Z,27.90
2023-01-19T19:51:38.020Z,27.93
2023-01-19T19:54:06.058Z,29.87
2023-01-19T19:56:34.912Z,30.60
2023-01-19T19:59:02.961Z,33.03
2023-01-19T20:01:33.614Z,33.93
2023-01-19T20:04:07.248Z,34.67
2023-01-19T20:06:38.731Z,35.20
2023-01-19T20:09:10.159Z,34.83
2023-01-19T20:11:38.318Z,37.17
2023-01-19T20:14:06.856Z,36.50
2023-01-19T20:16:34.976Z,38.73
2023-01-19T20:19:03.346Z,38.07
2023-01-19T20:21:33.188Z,40.03
2023-01-19T20:24:02.999Z,40.10
2023-01-19T20:26:34.796Z,40.70
2023-01-19T20:29:06.780Z,44.37
2023-01-19T20:31:36.258Z,45.20
2023-01-19T20:34:06.965Z,45.40
2023-01-19T20:36:35.881Z,47.03
2023-01-19T20:39:08.599Z,45.17
2023-01-19T20:41:43.498Z,45.20
2023-01-19T20:44:11.910Z,39.73
2023-01-19T20:46:39.914Z,38.77
2023-01-19T20:49:08.104Z,37.87
2023-01-19T20:51:37.458Z,41.53
2023-01-19T20:54:05.511Z,41.00
2023-01-19T20:56:33.545Z,39.77
2023-01-19T20:59:03.078Z,39.30
2023-01-19T21:01:31.223Z,38.37
2023-01-19T21:03:59.456Z,40.13
2023-01-19T21:06:27.508Z,39.20
2023-01-19T21:08:55.536Z,38.00
2023-01-19T21:11:24.054Z,36.30
2023-01-19T21:13:56.479Z,35.67
2023-01-19T21:16:27.297Z,35.50
2023-01-19T21:18:55.894Z,38.10
2023-01-19T21:21:30.869Z,37.77
2023-01-19T21:23:59.999Z,39.40
2023-01-19T21:26:29.896Z,38.53
2023-01-19T21:28:58.564Z,39.03
2023-01-19T21:31:28.784Z,39.17
2023-01-19T21:33:56.969Z,38.70
2023-01-19T21:36:25.565Z,39.00
2023-01-19T21:38:55.633Z,39.43
2023-01-19T21:41:24.029Z,39.30
2023-01-19T21:43:52.011Z,39.20
2023-01-19T21:46:21.322Z,41.80
2023-01-19T21:48:50.917Z,37.83
2023-01-19T21:51:18.884Z,36.80
2023-01-19T21:53:47.059Z,37.10
2023-01-19T21:56:16.787Z,34.20
2023-01-19T21:58:47.154Z,33.23
2023-01-19T22:01:15.412Z,34.17
2023-01-19T22:03:43.597Z,38.33
2023-01-19T22:06:15.474Z,40.63
2023-01-19T22:08:44.825Z,38.13
2023-01-19T22:11:14.160Z,38.23
2023-01-19T22:13:42.643Z,38.83
2023-01-19T22:16:13.391Z,37.40
2023-01-19T22:18:44.119Z,37.50
2023-01-19T22:21:15.601Z,37.30
2023-01-19T22:23:44.461Z,36.07
2023-01-19T22:26:13.039Z,36.07
2023-01-19T22:28:41.076Z,37.00
2023-01-19T22:31:11.097Z,37.13
2023-01-19T22:33:39.313Z,37.90
2023-01-19T22:36:14.073Z,40.83
2023-01-19T22:38:43.070Z,40.27
2023-01-19T22:41:19.378Z,38.87
2023-01-19T22:43:48.104Z,38.60
2023-01-19T22:46:19.065Z,40.07
2023-01-19T22:48:47.743Z,40.37
2023-01-19T22:51:18.428Z,39.23
2023-01-19T22:53:46.683Z,40.93
2023-01-19T22:56:16.631Z,39.60
2023-01-19T22:58:45.357Z,37.73
2023-01-19T23:01:14.978Z,36.93
2023-01-19T23:03:43.299Z,39.33
2023-01-19T23:06:13.387Z,36.63
2023-01-19T23:08:43.566Z,35.27
2023-01-19T23:11:13.777Z,37.27
2023-01-19T23:13:41.835Z,35.37
2023-01-19T23:16:11.095Z,37.00
2023-01-19T23:18:39.550Z,38.67
2023-01-19T23:21:08.681Z,38.40
2023-01-19T23:23:36.683Z,38.37
2023-01-19T23:26:08.335Z,37.80
2023-01-19T23:28:37.491Z,39.77
2023-01-19T23:31:14.651Z,37.33
2023-01-19T23:33:44.145Z,36.87
2023-01-19T23:36:12.675Z,35.57
2023-01-19T23:38:41.176Z,37.37
2023-01-19T23:41:10.532Z,37.70
2023-01-19T23:43:38.540Z,35.53
2023-01-19T23:46:08.885Z,34.80
2023-01-19T23:48:37.935Z,34.13
2023-01-19T23:51:09.999Z,33.03
2023-01-19T23:53:38.546Z,34.20
2023-01-19T23:56:12.627Z,34.67
2023-01-19T23:58:40.989Z,35.33
